Terminal Aerodrome Forecast
Issued by NWS King Salmon, AK

Home | Current Version | Previous Version | Text Only | Print | Product List | Glossary On
Versions: 1 2 3 4 5 6 7 8 9 10 11 12 13 14 15 16 17 18 19 20 21 22 23 24 25 26 27 28 29 30 31 32 33 34
072
FTAK31 PANC 271141
TAFAKN
TAF
PAKN 271141Z 2712/2812 11005KT P6SM VCSH BKN050 OVC070
     FM271900 13010G20KT P6SM SCT025 BKN050 OVC070
     FM280000 13010G20KT P6SM -SHRA BKN035 OVC060
     FM280500 VRB05KT P6SM BKN050 OVC080=

USA.gov is the U.S. government's official web portal to all federal, state and local government web resources and services.